Time;durP1;ratioP1;P1;durP2;ratioP2;P2;SDS_P1;SDS_P2;PMS_P1;PMS_P2;Temp;Humidity;BMP_temperature;BMP_pressure;BME280_temperature;BME280_humidity;BME280_pressure;Samples;Min_cycle;Max_cycle;Signal;HPM_P1;HPM_P2
2022/10/15 00:01:28;;;;;;;5.63;4.03;;;18.30;96.70;;;;;;5082363;28;20556;-72
2022/10/15 00:03:56;;;;;;;6.30;3.75;;;18.30;96.70;;;;;;5080860;28;20062;-72
2022/10/15 00:06:24;;;;;;;8.52;4.43;;;18.40;96.70;;;;;;5083227;28;20050;-72
2022/10/15 00:08:52;;;;;;;7.28;4.72;;;18.30;96.70;;;;;;5081926;28;20040;-72
2022/10/15 00:11:24;;;;;;;7.68;5.20;;;18.30;96.70;;;;;;5083589;28;20052;-72
2022/10/15 00:13:55;;;;;;;12.85;5.20;;;18.20;96.70;;;;;;5082647;28;20040;-71
2022/10/15 00:16:25;;;;;;;11.02;5.63;;;18.20;96.70;;;;;;5082057;28;20052;-72
2022/10/15 00:18:55;;;;;;;8.35;5.53;;;18.10;96.70;;;;;;5079423;28;20052;-71
2022/10/15 00:21:23;;;;;;;12.23;5.93;;;18.20;96.70;;;;;;5083436;28;20410;-72
2022/10/15 00:23:52;;;;;;;10.27;6.15;;;18.20;96.70;;;;;;5082375;28;20515;-72
2022/10/15 00:26:21;;;;;;;10.82;6.55;;;18.30;96.70;;;;;;5078156;28;20439;-72
2022/10/15 00:28:51;;;;;;;9.80;6.30;;;18.30;96.70;;;;;;5080438;28;20093;-71
2022/10/15 00:31:26;;;;;;;11.02;6.57;;;18.30;96.70;;;;;;5080762;28;20036;-72
2022/10/15 00:33:55;;;;;;;9.13;6.43;;;18.20;96.70;;;;;;5078607;28;20528;-72
2022/10/15 00:36:24;;;;;;;12.00;7.25;;;18.20;96.70;;;;;;5076732;28;20387;-71
2022/10/15 00:38:53;;;;;;;11.50;6.72;;;18.30;96.70;;;;;;5079944;28;20050;-72
2022/10/15 00:41:24;;;;;;;12.23;7.03;;;18.30;96.70;;;;;;5081699;28;20043;-72
2022/10/15 00:43:54;;;;;;;12.57;7.38;;;18.20;96.70;;;;;;5082267;28;20473;-71
2022/10/15 00:46:27;;;;;;;11.57;7.65;;;18.20;96.70;;;;;;5078497;28;20044;-72
2022/10/15 00:49:00;;;;;;;10.68;6.88;;;18.20;96.70;;;;;;5082134;28;20135;-71
2022/10/15 00:51:38;;;;;;;9.60;6.25;;;18.20;96.70;;;;;;5081868;28;20113;-71
2022/10/15 00:54:08;;;;;;;11.35;6.93;;;18.20;96.70;;;;;;5082970;28;20047;-71
2022/10/15 00:56:36;;;;;;;15.15;7.38;;;18.10;96.70;;;;;;5082966;28;20573;-71
2022/10/15 00:59:06;;;;;;;10.55;6.93;;;18.10;96.70;;;;;;5081687;28;21055;-71
2022/10/15 01:01:36;;;;;;;9.80;6.57;;;18.00;96.70;;;;;;5093936;28;20071;-72
2022/10/15 01:04:06;;;;;;;9.70;6.68;;;18.10;96.70;;;;;;5070816;28;20055;-71
2022/10/15 01:06:34;;;;;;;12.70;6.88;;;18.10;96.70;;;;;;5080232;28;20704;-71
2022/10/15 01:09:03;;;;;;;10.13;6.50;;;18.00;96.70;;;;;;5075463;28;20082;-71
2022/10/15 01:11:38;;;;;;;10.63;6.43;;;18.00;96.70;;;;;;5081216;28;20120;-71
2022/10/15 01:14:18;;;;;;;9.73;6.03;;;18.00;96.70;;;;;;5063363;28;20324;-71
2022/10/15 01:16:53;;;;;;;8.50;5.53;;;18.00;96.70;;;;;;5080405;28;20514;-71
2022/10/15 01:19:47;;;;;;;12.60;6.63;;;18.00;96.70;;;;;;5085011;28;20060;-71
2022/10/15 01:22:22;;;;;;;10.32;6.25;;;18.00;96.70;;;;;;5086259;28;20048;-72
2022/10/15 01:25:07;;;;;;;11.45;6.40;;;18.00;96.70;;;;;;5084452;28;20048;-71
2022/10/15 01:27:40;;;;;;;8.90;6.25;;;17.90;96.70;;;;;;5079896;28;20048;-72
2022/10/15 01:30:35;;;;;;;9.63;6.15;;;17.90;96.70;;;;;;5095490;28;20063;-72
2022/10/15 01:33:14;;;;;;;10.73;6.00;;;17.80;96.70;;;;;;5075678;28;20056;-71
2022/10/15 01:35:48;;;;;;;13.27;6.38;;;17.70;96.70;;;;;;5081175;28;20064;-72
2022/10/15 01:38:32;;;;;;;6.95;5.43;;;17.60;96.70;;;;;;5080573;28;20046;-72
2022/10/15 01:41:07;;;;;;;8.65;5.78;;;17.70;96.70;;;;;;5080843;28;20248;-72
2022/10/15 01:43:42;;;;;;;11.48;5.95;;;17.70;96.70;;;;;;5080728;28;20054;-72
2022/10/15 01:46:36;;;;;;;10.65;6.00;;;17.70;96.70;;;;;;5084972;28;20517;-71
2022/10/15 01:49:07;;;;;;;9.30;5.32;;;17.80;96.70;;;;;;5083956;28;20122;-71
2022/10/15 01:51:39;;;;;;;9.98;5.88;;;17.60;96.70;;;;;;5081184;28;20051;-71
2022/10/15 01:54:32;;;;;;;7.72;5.50;;;17.70;96.70;;;;;;5079583;28;20062;-71
2022/10/15 01:57:01;;;;;;;7.03;5.10;;;17.80;96.70;;;;;;5048519;28;20141;-71
2022/10/15 01:59:31;;;;;;;9.68;5.70;;;17.90;96.70;;;;;;5066638;28;20050;-71
2022/10/15 02:02:01;;;;;;;9.63;6.32;;;17.90;96.70;;;;;;5081590;28;20421;-71
2022/10/15 02:04:30;;;;;;;9.35;6.45;;;17.80;96.70;;;;;;5084749;28;20048;-72
2022/10/15 02:07:02;;;;;;;9.65;6.10;;;17.90;96.70;;;;;;5083843;28;20048;-71
2022/10/15 02:09:41;;;;;;;7.40;5.32;;;17.90;96.70;;;;;;5065484;28;20488;-71
2022/10/15 02:12:25;;;;;;;8.23;5.95;;;17.80;96.70;;;;;;5083998;28;20139;-71
2022/10/15 02:15:00;;;;;;;9.07;5.88;;;17.80;96.70;;;;;;5081828;28;20425;-71
2022/10/15 02:17:34;;;;;;;8.35;5.65;;;17.80;96.70;;;;;;5083783;28;20079;-71
2022/10/15 02:20:11;;;;;;;11.75;5.75;;;17.80;96.70;;;;;;5094889;28;20166;-71
2022/10/15 02:22:46;;;;;;;10.02;5.72;;;17.70;96.70;;;;;;5082689;28;20052;-71
2022/10/15 02:25:21;;;;;;;9.38;5.35;;;17.70;96.70;;;;;;5083573;28;20059;-71
2022/10/15 02:27:52;;;;;;;9.68;5.03;;;17.70;96.70;;;;;;5110527;27;20051;-71
2022/10/15 02:30:21;;;;;;;9.93;5.30;;;17.70;96.70;;;;;;5083476;28;20620;-71
2022/10/15 02:32:55;;;;;;;9.32;5.05;;;17.80;96.70;;;;;;5082538;28;20048;-71
2022/10/15 02:35:23;;;;;;;8.95;5.65;;;17.70;96.70;;;;;;5083437;28;20459;-71
2022/10/15 02:37:55;;;;;;;9.30;4.82;;;17.70;96.70;;;;;;5083093;28;20051;-71
2022/10/15 02:40:26;;;;;;;9.05;5.15;;;17.70;96.70;;;;;;5082336;28;20048;-71
2022/10/15 02:42:55;;;;;;;11.48;6.05;;;17.70;96.70;;;;;;5081707;28;20079;-71
2022/10/15 02:45:27;;;;;;;9.15;5.15;;;17.60;96.70;;;;;;5083320;28;20036;-71
2022/10/15 02:47:56;;;;;;;8.50;5.22;;;17.50;96.70;;;;;;5080875;28;20052;-71
2022/10/15 02:50:24;;;;;;;8.25;5.10;;;17.50;96.70;;;;;;5067588;28;20058;-71
2022/10/15 02:52:52;;;;;;;10.88;5.50;;;17.60;96.70;;;;;;5082891;28;20559;-71
2022/10/15 02:55:20;;;;;;;11.98;4.90;;;17.60;96.70;;;;;;5083570;28;20040;-71
2022/10/15 02:57:48;;;;;;;8.50;5.43;;;17.60;96.70;;;;;;5095694;28;20055;-71
2022/10/15 03:00:21;;;;;;;8.80;5.05;;;17.60;96.70;;;;;;5084004;28;20411;-71
2022/10/15 03:02:49;;;;;;;8.10;4.55;;;17.50;96.70;;;;;;5083550;28;20361;-71
2022/10/15 03:05:20;;;;;;;9.52;5.28;;;17.50;96.70;;;;;;5066944;28;20528;-71
2022/10/15 03:07:48;;;;;;;7.88;5.22;;;17.50;96.70;;;;;;5080879;28;20044;-71
2022/10/15 03:10:16;;;;;;;8.50;5.28;;;17.50;96.70;;;;;;5082792;28;20391;-71
2022/10/15 03:12:44;;;;;;;7.57;4.70;;;17.50;96.70;;;;;;5081335;28;20055;-71
2022/10/15 03:15:13;;;;;;;7.40;5.00;;;17.40;96.70;;;;;;5082149;28;20044;-71
2022/10/15 03:17:43;;;;;;;8.63;5.03;;;17.40;96.70;;;;;;5099162;28;20071;-71
2022/10/15 03:20:15;;;;;;;10.02;4.72;;;17.40;96.70;;;;;;5081653;28;20472;-71
2022/10/15 03:22:44;;;;;;;11.57;5.07;;;17.40;96.70;;;;;;5083225;28;20097;-71
2022/10/15 03:25:12;;;;;;;7.82;4.43;;;17.30;96.70;;;;;;5065332;28;20040;-71
2022/10/15 03:27:40;;;;;;;7.50;4.95;;;17.30;96.70;;;;;;5078699;28;20050;-71
2022/10/15 03:30:21;;;;;;;9.30;5.30;;;17.30;96.70;;;;;;5063318;28;20051;-71
2022/10/15 03:32:49;;;;;;;7.15;5.32;;;17.40;96.70;;;;;;5082534;28;20070;-71
2022/10/15 03:35:17;;;;;;;8.95;4.82;;;17.40;96.70;;;;;;5077113;28;20082;-72
2022/10/15 03:37:46;;;;;;;8.57;5.20;;;17.40;96.70;;;;;;5082649;28;20068;-71
2022/10/15 03:40:14;;;;;;;8.65;5.25;;;17.40;96.70;;;;;;5081108;28;20040;-72
2022/10/15 03:42:49;;;;;;;7.50;5.40;;;17.40;96.70;;;;;;5066344;28;20054;-71
2022/10/15 03:45:19;;;;;;;9.07;5.57;;;17.50;96.70;;;;;;5080815;28;20140;-71
2022/10/15 03:47:54;;;;;;;10.00;5.18;;;17.40;96.70;;;;;;5078933;28;20059;-71
2022/10/15 03:50:23;;;;;;;7.00;5.05;;;17.40;96.70;;;;;;5064467;28;20458;-71
2022/10/15 03:52:52;;;;;;;8.52;5.68;;;17.30;96.70;;;;;;5084188;28;20036;-72
2022/10/15 03:55:21;;;;;;;10.52;5.10;;;17.30;96.70;;;;;;5081669;28;20047;-71
2022/10/15 03:57:48;;;;;;;7.15;5.10;;;17.30;96.70;;;;;;5083591;28;20042;-71
2022/10/15 04:00:17;;;;;;;6.72;4.78;;;17.20;96.70;;;;;;5080103;28;20047;-71
2022/10/15 04:02:47;;;;;;;7.32;5.35;;;17.20;96.70;;;;;;5079100;28;20494;-71
2022/10/15 04:05:24;;;;;;;9.10;5.50;;;17.10;96.70;;;;;;5087398;28;20040;-71
2022/10/15 04:07:59;;;;;;;8.30;5.50;;;17.00;96.70;;;;;;5081383;28;20044;-72
2022/10/15 04:10:30;;;;;;;7.15;5.47;;;17.00;96.70;;;;;;5080904;28;20250;-72
2022/10/15 04:12:58;;;;;;;9.40;4.90;;;17.00;96.70;;;;;;5061667;28;20441;-71
2022/10/15 04:15:27;;;;;;;7.97;5.18;;;17.00;96.70;;;;;;5081057;28;20044;-72
2022/10/15 04:18:01;;;;;;;8.40;5.03;;;17.10;96.70;;;;;;5080752;28;20571;-71
2022/10/15 04:20:30;;;;;;;8.73;4.82;;;17.20;96.70;;;;;;5080525;28;20070;-71
2022/10/15 04:23:12;;;;;;;6.95;4.80;;;17.20;96.70;;;;;;5065898;28;20032;-71
2022/10/15 04:25:45;;;;;;;7.07;4.68;;;17.10;96.70;;;;;;5077323;28;20430;-71
2022/10/15 04:28:14;;;;;;;9.25;5.15;;;17.10;96.70;;;;;;5097828;28;20047;-71
2022/10/15 04:30:46;;;;;;;8.70;5.75;;;17.10;96.70;;;;;;5081095;28;20039;-71
2022/10/15 04:33:15;;;;;;;9.70;5.05;;;17.20;96.70;;;;;;5080663;28;20102;-71
2022/10/15 04:35:43;;;;;;;6.63;5.00;;;17.20;96.70;;;;;;5065627;28;20052;-71
2022/10/15 04:38:17;;;;;;;7.93;4.68;;;17.20;96.70;;;;;;5080988;28;20040;-71
2022/10/15 04:41:00;;;;;;;8.05;4.88;;;17.20;96.70;;;;;;5080227;28;20578;-71
2022/10/15 04:43:41;;;;;;;7.22;4.70;;;17.20;96.70;;;;;;5068147;28;20044;-72
2022/10/15 04:46:12;;;;;;;6.88;4.78;;;17.20;96.70;;;;;;5082020;28;20303;-71
2022/10/15 04:48:41;;;;;;;7.40;5.00;;;17.10;96.70;;;;;;5080170;28;20052;-71
2022/10/15 04:51:15;;;;;;;6.53;5.05;;;17.10;96.70;;;;;;5081648;28;20480;-72
2022/10/15 04:54:04;;;;;;;6.28;4.43;;;17.10;96.70;;;;;;5071315;28;20064;-71
2022/10/15 04:56:35;;;;;;;8.55;4.47;;;17.10;96.70;;;;;;5083979;28;20044;-71
2022/10/15 04:59:06;;;;;;;8.63;4.57;;;17.00;96.70;;;;;;5087091;28;20386;-71
2022/10/15 05:01:46;;;;;;;5.22;3.97;;;16.90;96.70;;;;;;5097454;28;20075;-71
2022/10/15 05:04:15;;;;;;;5.30;3.85;;;16.80;96.70;;;;;;5086161;28;20058;-71
2022/10/15 05:06:43;;;;;;;7.55;4.63;;;16.90;96.70;;;;;;5086246;28;20044;-71
2022/10/15 05:09:20;;;;;;;6.18;4.07;;;16.80;96.70;;;;;;5068727;28;20440;-71
2022/10/15 05:11:51;;;;;;;7.68;4.70;;;16.70;96.70;;;;;;5086526;28;20040;-72
2022/10/15 05:14:19;;;;;;;5.80;4.10;;;16.70;96.70;;;;;;5085888;28;20052;-71
2022/10/15 05:17:03;;;;;;;6.07;4.25;;;16.70;96.70;;;;;;5084551;28;20432;-71
2022/10/15 05:19:37;;;;;;;5.30;3.75;;;16.70;96.70;;;;;;5084131;28;20045;-71
2022/10/15 05:22:08;;;;;;;7.45;4.05;;;16.80;96.70;;;;;;5068395;28;20044;-71
2022/10/15 05:24:45;;;;;;;10.23;4.35;;;17.00;96.70;;;;;;5085613;28;20134;-71
2022/10/15 05:27:34;;;;;;;6.82;4.43;;;17.00;96.70;;;;;;5084775;28;20448;-71
2022/10/15 05:30:05;;;;;;;8.98;4.45;;;16.90;96.70;;;;;;5084606;28;20447;-71
2022/10/15 05:32:55;;;;;;;8.35;4.05;;;17.00;96.70;;;;;;5085575;28;20078;-72
2022/10/15 05:35:24;;;;;;;6.43;4.00;;;17.10;96.70;;;;;;5084568;28;20490;-71
2022/10/15 05:37:59;;;;;;;8.07;4.60;;;17.20;96.70;;;;;;5085128;28;20486;-72
2022/10/15 05:40:29;;;;;;;7.10;4.63;;;17.20;96.70;;;;;;5083775;28;20044;-72
2022/10/15 05:43:06;;;;;;;8.15;4.90;;;17.20;96.70;;;;;;5085199;28;20059;-72
2022/10/15 05:45:35;;;;;;;11.23;5.10;;;17.10;96.70;;;;;;5083005;28;20071;-72
2022/10/15 05:48:05;;;;;;;9.85;5.00;;;17.20;96.70;;;;;;5086371;28;20040;-72
2022/10/15 05:50:35;;;;;;;6.88;4.93;;;17.40;96.70;;;;;;5083737;28;20059;-72
2022/10/15 05:53:07;;;;;;;8.48;5.80;;;17.50;96.70;;;;;;5079450;28;20047;-73
2022/10/15 05:56:00;;;;;;;7.63;4.90;;;17.60;96.70;;;;;;5080766;28;20044;-72
2022/10/15 05:58:33;;;;;;;7.25;4.78;;;17.60;96.70;;;;;;5065014;28;20044;-72
2022/10/15 06:01:06;;;;;;;8.40;4.82;;;17.60;96.70;;;;;;5085097;28;20552;-73
2022/10/15 06:03:38;;;;;;;7.38;5.47;;;17.70;96.70;;;;;;5084622;28;20046;-73
2022/10/15 06:06:14;;;;;;;9.88;5.03;;;17.70;96.70;;;;;;5084172;28;20055;-73
2022/10/15 06:08:43;;;;;;;7.88;4.80;;;17.80;96.70;;;;;;5083962;28;20076;-72
2022/10/15 06:11:13;;;;;;;6.95;4.85;;;17.70;96.70;;;;;;5086170;28;20506;-73
2022/10/15 06:13:42;;;;;;;11.30;4.55;;;17.60;96.70;;;;;;5085051;28;20071;-73
2022/10/15 06:16:11;;;;;;;6.82;4.97;;;17.60;96.70;;;;;;5083556;28;20055;-72
2022/10/15 06:18:43;;;;;;;6.65;4.55;;;17.40;96.70;;;;;;5109631;27;20060;-73
2022/10/15 06:21:12;;;;;;;8.30;4.10;;;17.50;96.70;;;;;;5083659;28;20472;-73
2022/10/15 06:23:40;;;;;;;6.70;4.85;;;17.50;96.70;;;;;;5081546;28;20040;-73
2022/10/15 06:26:09;;;;;;;7.53;4.53;;;17.50;96.70;;;;;;5085003;28;20081;-72
2022/10/15 06:28:39;;;;;;;7.93;4.88;;;17.40;96.70;;;;;;5067408;28;20542;-71
2022/10/15 06:31:08;;;;;;;5.80;4.40;;;17.40;96.70;;;;;;5078861;28;20059;-72
2022/10/15 06:33:36;;;;;;;7.82;4.35;;;17.50;96.70;;;;;;5083547;28;20075;-76
2022/10/15 06:36:07;;;;;;;5.90;4.50;;;17.60;96.70;;;;;;5084377;28;20070;-71
2022/10/15 06:38:35;;;;;;;8.13;5.20;;;17.60;96.70;;;;;;5083766;28;20179;-70
2022/10/15 06:41:04;;;;;;;7.65;4.85;;;17.70;96.70;;;;;;5083312;28;20383;-72
2022/10/15 06:43:32;;;;;;;6.80;4.97;;;17.60;96.70;;;;;;5077233;28;20047;-71
2022/10/15 06:46:05;;;;;;;11.10;5.15;;;17.60;96.70;;;;;;5076237;28;20102;-71
2022/10/15 06:48:33;;;;;;;6.70;4.45;;;17.70;96.70;;;;;;5082389;28;20059;-71
2022/10/15 06:51:02;;;;;;;5.85;4.68;;;17.70;96.70;;;;;;5067072;28;20055;-71
2022/10/15 06:53:31;;;;;;;8.27;5.13;;;17.80;96.70;;;;;;5081694;28;20129;-71
2022/10/15 06:56:01;;;;;;;7.68;4.90;;;17.80;96.70;;;;;;5066237;28;20127;-71
2022/10/15 06:58:33;;;;;;;10.27;6.85;;;17.80;96.70;;;;;;5081099;28;20077;-71
2022/10/15 07:01:04;;;;;;;15.00;11.13;;;17.80;96.70;;;;;;5079882;28;20040;-71
2022/10/15 07:03:33;;;;;;;15.00;10.90;;;17.80;96.70;;;;;;5083517;28;20121;-70
2022/10/15 07:06:02;;;;;;;11.82;9.43;;;17.90;96.70;;;;;;5082334;28;20044;-71
2022/10/15 07:08:31;;;;;;;11.60;9.35;;;17.90;96.70;;;;;;5081709;28;20048;-71
2022/10/15 07:11:01;;;;;;;11.38;7.97;;;18.00;96.70;;;;;;5077418;28;20043;-72
2022/10/15 07:13:31;;;;;;;8.73;7.47;;;18.00;96.70;;;;;;5084172;28;20044;-71
2022/10/15 07:16:05;;;;;;;11.10;7.13;;;18.00;96.70;;;;;;5082279;28;20105;-71
2022/10/15 07:18:34;;;;;;;11.40;7.53;;;18.10;96.70;;;;;;5083688;28;20045;-71
2022/10/15 07:21:03;;;;;;;8.80;6.50;;;18.10;96.70;;;;;;5082431;28;20032;-71
2022/10/15 07:23:32;;;;;;;9.60;6.82;;;18.20;96.70;;;;;;5083932;28;20048;-72
2022/10/15 07:26:00;;;;;;;11.55;6.63;;;18.20;96.70;;;;;;5083005;28;20039;-71
2022/10/15 07:28:29;;;;;;;11.73;6.78;;;18.30;96.70;;;;;;5066856;28;20505;-71
2022/10/15 07:31:00;;;;;;;9.25;6.25;;;18.20;96.70;;;;;;5080036;28;20082;-71
2022/10/15 07:33:32;;;;;;;8.52;6.70;;;18.10;96.70;;;;;;5079090;28;20041;-71
2022/10/15 07:36:03;;;;;;;9.95;6.28;;;18.20;96.70;;;;;;5082670;28;20032;-71
2022/10/15 07:38:32;;;;;;;9.15;6.40;;;18.30;96.70;;;;;;5083649;28;20044;-71
2022/10/15 07:41:03;;;;;;;8.57;6.15;;;18.40;96.70;;;;;;5082140;28;20046;-71
2022/10/15 07:43:39;;;;;;;10.02;6.40;;;18.50;96.70;;;;;;5082071;28;20620;-73
2022/10/15 07:46:08;;;;;;;9.35;7.05;;;18.60;96.70;;;;;;5076937;28;20118;-73
2022/10/15 07:48:39;;;;;;;8.15;6.47;;;18.70;96.70;;;;;;5079631;28;20044;-75
2022/10/15 07:51:10;;;;;;;7.88;6.53;;;18.70;96.70;;;;;;5081368;28;20058;-71
2022/10/15 07:53:39;;;;;;;7.53;6.13;;;18.70;96.70;;;;;;5082929;28;20555;-71
2022/10/15 07:56:09;;;;;;;11.43;7.25;;;18.80;96.70;;;;;;5092224;27;20538;-72
2022/10/15 07:58:38;;;;;;;7.97;6.63;;;18.80;96.70;;;;;;5083513;28;20048;-71
2022/10/15 08:01:08;;;;;;;11.05;7.13;;;18.80;96.70;;;;;;5082400;28;20043;-71
2022/10/15 08:03:38;;;;;;;13.02;8.00;;;18.90;96.70;;;;;;5080852;28;20177;-71
2022/10/15 08:06:07;;;;;;;9.15;7.07;;;18.90;96.70;;;;;;5082150;28;20067;-72
2022/10/15 08:08:35;;;;;;;10.80;6.90;;;18.90;96.70;;;;;;5083544;28;20701;-71
2022/10/15 08:11:05;;;;;;;10.07;7.53;;;19.00;96.70;;;;;;5081853;28;20047;-71
2022/10/15 08:13:33;;;;;;;8.35;6.65;;;19.10;96.70;;;;;;5081293;28;20293;-69
2022/10/15 08:16:02;;;;;;;9.00;7.15;;;19.20;96.70;;;;;;5082580;28;20044;-69
2022/10/15 08:18:30;;;;;;;9.32;6.97;;;19.30;96.70;;;;;;5081924;28;20471;-70
2022/10/15 08:21:01;;;;;;;10.32;6.93;;;19.30;96.70;;;;;;5065247;28;20068;-70
2022/10/15 08:23:29;;;;;;;8.68;6.47;;;19.30;96.70;;;;;;5081264;28;20043;-71
2022/10/15 08:25:59;;;;;;;9.18;5.93;;;19.30;96.70;;;;;;5060179;28;20143;-70
2022/10/15 08:28:28;;;;;;;6.70;5.38;;;19.40;96.70;;;;;;5080684;28;20051;-70
2022/10/15 08:30:57;;;;;;;6.85;5.90;;;19.50;96.70;;;;;;5078019;28;20044;-70
2022/10/15 08:33:32;;;;;;;9.05;5.68;;;19.50;96.70;;;;;;5082384;28;20071;-71
2022/10/15 08:36:04;;;;;;;11.98;5.53;;;19.50;96.70;;;;;;5083171;28;20040;-71
2022/10/15 08:38:34;;;;;;;9.13;5.38;;;19.50;96.70;;;;;;5080475;28;20046;-72
2022/10/15 08:41:04;;;;;;;17.17;14.52;;;19.60;96.70;;;;;;5083451;28;20234;-72
2022/10/15 08:43:36;;;;;;;15.43;10.60;;;19.60;96.70;;;;;;5081472;28;20068;-72
2022/10/15 08:46:15;;;;;;;12.82;6.50;;;19.70;96.70;;;;;;5097902;28;20036;-72
2022/10/15 08:48:52;;;;;;;9.18;6.00;;;19.80;96.70;;;;;;5096405;28;20481;-72
2022/10/15 08:51:25;;;;;;;11.88;6.70;;;19.80;96.70;;;;;;5083486;28;20051;-71
2022/10/15 08:53:58;;;;;;;10.88;6.72;;;19.90;96.70;;;;;;5078353;28;20042;-71
2022/10/15 08:56:32;;;;;;;9.20;6.00;;;19.90;96.70;;;;;;5082205;28;20050;-71
2022/10/15 08:59:14;;;;;;;9.50;5.95;;;20.00;96.70;;;;;;5095590;28;20044;-71
2022/10/15 09:01:47;;;;;;;9.45;5.72;;;20.10;96.70;;;;;;5079167;28;20032;-71
2022/10/15 09:04:25;;;;;;;9.18;5.97;;;20.20;96.70;;;;;;5080717;28;20048;-70
2022/10/15 09:07:07;;;;;;;7.63;5.75;;;20.40;96.70;;;;;;5082118;28;21109;-70
2022/10/15 09:09:43;;;;;;;8.95;5.65;;;20.50;96.70;;;;;;5078200;28;20040;-71
2022/10/15 09:12:29;;;;;;;9.70;5.50;;;20.60;96.70;;;;;;5078925;28;20048;-70
2022/10/15 09:14:59;;;;;;;9.68;5.68;;;20.70;96.70;;;;;;5079562;28;20048;-70
2022/10/15 09:17:31;;;;;;;9.30;5.82;;;20.80;96.70;;;;;;5081969;28;20040;-70
2022/10/15 09:20:04;;;;;;;8.57;5.38;;;21.10;96.70;;;;;;5074577;28;20044;-71
2022/10/15 09:22:35;;;;;;;8.55;5.18;;;21.30;96.70;;;;;;5081092;28;20429;-70
2022/10/15 09:25:14;;;;;;;10.30;5.45;;;21.30;96.70;;;;;;5083543;28;20042;-70
2022/10/15 09:27:46;;;;;;;8.38;5.57;;;21.40;96.70;;;;;;5079682;28;20048;-70
2022/10/15 09:30:30;;;;;;;11.43;5.38;;;21.50;96.70;;;;;;5081692;28;20079;-70
2022/10/15 09:33:04;;;;;;;7.68;5.35;;;21.60;96.70;;;;;;5081102;28;20619;-70
2022/10/15 09:35:38;;;;;;;7.75;5.70;;;21.60;96.70;;;;;;5081644;28;20054;-71
2022/10/15 09:38:31;;;;;;;8.52;5.85;;;21.80;96.70;;;;;;5108589;27;20048;-73
2022/10/15 09:41:15;;;;;;;28.13;24.77;;;22.00;96.70;;;;;;5081302;28;20048;-72
2022/10/15 09:43:48;;;;;;;17.45;13.98;;;22.00;96.70;;;;;;5084619;28;20036;-73
2022/10/15 09:46:19;;;;;;;13.60;10.85;;;21.90;96.70;;;;;;5085740;28;20040;-73
2022/10/15 09:48:51;;;;;;;11.43;7.90;;;21.90;96.70;;;;;;5085787;28;20040;-73
2022/10/15 09:51:25;;;;;;;9.73;6.60;;;21.90;96.70;;;;;;5085424;28;20564;-70
2022/10/15 09:54:02;;;;;;;9.10;5.95;;;21.90;96.70;;;;;;5084568;28;20113;-70
2022/10/15 09:56:35;;;;;;;8.32;5.50;;;22.00;96.70;;;;;;5091017;28;20117;-71
2022/10/15 09:59:03;;;;;;;9.07;5.47;;;22.00;96.70;;;;;;5080054;28;20051;-71
2022/10/15 10:01:36;;;;;;;10.40;5.22;;;22.10;96.70;;;;;;5083894;28;20040;-71
2022/10/15 10:04:16;;;;;;;7.82;5.30;;;22.10;96.70;;;;;;5082098;28;20040;-72
2022/10/15 10:06:47;;;;;;;8.10;4.85;;;22.00;96.70;;;;;;5086777;28;20067;-70
2022/10/15 10:09:20;;;;;;;10.57;5.30;;;22.10;96.70;;;;;;5082409;28;20649;-71
2022/10/15 10:11:51;;;;;;;8.60;5.10;;;22.20;96.70;;;;;;5064014;28;20560;-70
2022/10/15 10:14:25;;;;;;;9.10;5.60;;;22.20;96.70;;;;;;5079484;28;20482;-71
2022/10/15 10:17:15;;;;;;;11.50;5.85;;;22.30;96.70;;;;;;5083903;28;20047;-71
2022/10/15 10:19:45;;;;;;;7.30;4.47;;;22.40;96.70;;;;;;5084906;28;20066;-70
2022/10/15 10:22:16;;;;;;;8.88;5.18;;;22.40;96.70;;;;;;5085932;28;20047;-72
2022/10/15 10:24:46;;;;;;;8.95;5.53;;;22.50;96.70;;;;;;5084593;28;20128;-72
2022/10/15 10:27:21;;;;;;;10.43;5.22;;;22.50;96.70;;;;;;5083762;28;20040;-72
2022/10/15 10:29:54;;;;;;;6.80;4.32;;;22.50;96.70;;;;;;5063715;28;20529;-73
2022/10/15 10:32:31;;;;;;;8.68;5.18;;;22.70;96.70;;;;;;5066044;28;20081;-72
2022/10/15 10:35:02;;;;;;;7.28;4.90;;;22.70;96.70;;;;;;5100261;28;20044;-73
2022/10/15 10:37:41;;;;;;;8.30;4.90;;;22.60;96.70;;;;;;5083800;28;20130;-73
2022/10/15 10:40:23;;;;;;;7.43;4.70;;;22.60;96.70;;;;;;5083866;28;20522;-73
2022/10/15 10:43:09;;;;;;;7.32;4.80;;;22.50;96.70;;;;;;5084708;28;20044;-73
2022/10/15 10:45:38;;;;;;;8.63;5.20;;;22.50;96.70;;;;;;5079092;28;20117;-73
2022/10/15 10:48:19;;;;;;;7.57;5.03;;;22.50;96.70;;;;;;5078774;28;20046;-73
2022/10/15 10:50:47;;;;;;;7.10;4.50;;;22.60;96.70;;;;;;5084617;28;20044;-73
2022/10/15 10:53:22;;;;;;;8.68;6.05;;;22.60;96.70;;;;;;5082568;28;20089;-74
2022/10/15 10:55:54;;;;;;;8.82;4.93;;;22.60;96.70;;;;;;5082762;28;20060;-72
2022/10/15 10:58:28;;;;;;;10.18;5.30;;;22.70;96.70;;;;;;5079585;28;20044;-73
2022/10/15 11:00:57;;;;;;;6.63;4.35;;;22.70;96.70;;;;;;5074159;28;20545;-73
2022/10/15 11:03:35;;;;;;;10.02;5.05;;;22.70;96.70;;;;;;5078836;28;20111;-74
2022/10/15 11:06:26;;;;;;;7.05;4.65;;;22.70;96.70;;;;;;5080090;28;20064;-73
2022/10/15 11:09:06;;;;;;;7.95;4.70;;;22.70;96.70;;;;;;5081691;28;20102;-73
2022/10/15 11:11:50;;;;;;;10.18;4.50;;;22.80;96.70;;;;;;5082318;28;20058;-73
2022/10/15 11:14:28;;;;;;;9.15;3.97;;;22.90;96.70;;;;;;5097727;27;20095;-73
2022/10/15 11:17:06;;;;;;;8.00;4.18;;;22.90;96.70;;;;;;5071913;28;20036;-73
2022/10/15 11:19:40;;;;;;;8.90;4.55;;;22.90;96.70;;;;;;5085090;28;20168;-73
2022/10/15 11:22:47;;;;;;;12.55;4.28;;;22.90;96.70;;;;;;5082034;28;20126;-73
2022/10/15 11:25:27;;;;;;;5.97;3.90;;;22.90;96.70;;;;;;5079596;28;20044;-73
2022/10/15 11:28:18;;;;;;;7.35;4.28;;;22.90;96.70;;;;;;5096672;28;20050;-72
2022/10/15 11:30:53;;;;;;;7.95;3.88;;;22.90;96.70;;;;;;5081862;28;20477;-72
2022/10/15 11:33:37;;;;;;;5.72;3.80;;;22.90;96.70;;;;;;5084180;28;20090;-71
2022/10/15 11:36:22;;;;;;;7.35;4.07;;;22.80;96.70;;;;;;5083963;28;20064;-71
2022/10/15 11:38:58;;;;;;;5.82;3.92;;;22.80;96.70;;;;;;5066940;28;20117;-71
2022/10/15 11:41:39;;;;;;;8.10;4.60;;;22.90;96.70;;;;;;5081307;28;20044;-71
2022/10/15 11:44:23;;;;;;;9.15;4.43;;;22.80;96.70;;;;;;5078969;28;20043;-71
2022/10/15 11:46:59;;;;;;;8.57;4.03;;;22.70;96.70;;;;;;5081616;28;20048;-71
2022/10/15 11:49:37;;;;;;;6.47;4.03;;;22.80;96.70;;;;;;5077881;28;20093;-71
2022/10/15 11:52:27;;;;;;;5.25;3.80;;;22.80;96.70;;;;;;5083293;28;20040;-71
2022/10/15 11:55:02;;;;;;;7.88;3.90;;;22.80;96.70;;;;;;5082687;28;20052;-71
2022/10/15 11:57:33;;;;;;;8.90;3.93;;;22.80;96.70;;;;;;5084408;28;20385;-71
2022/10/15 12:00:16;;;;;;;6.97;4.00;;;22.80;96.70;;;;;;5081619;28;20278;-71
2022/10/15 12:02:46;;;;;;;5.70;3.55;;;22.80;96.70;;;;;;5084206;28;20059;-71
2022/10/15 12:05:18;;;;;;;9.65;4.55;;;22.90;96.70;;;;;;5082457;28;20085;-71
2022/10/15 12:07:48;;;;;;;7.43;3.58;;;22.90;96.70;;;;;;5075794;28;20048;-71
2022/10/15 12:10:34;;;;;;;8.48;4.13;;;22.80;96.70;;;;;;5079873;28;20115;-71
2022/10/15 12:13:07;;;;;;;6.53;4.07;;;22.90;96.70;;;;;;5082895;28;20055;-71
2022/10/15 12:15:44;;;;;;;5.72;4.15;;;22.90;96.70;;;;;;5079173;28;20083;-72
2022/10/15 12:18:15;;;;;;;;;;;22.80;96.70;;;;;;5083352;28;20060;-72
2022/10/15 12:20:44;;;;;;;8.30;4.15;;;22.80;96.70;;;;;;5081465;28;20644;-73
2022/10/15 12:23:25;;;;;;;8.75;3.97;;;22.80;96.70;;;;;;5081599;28;20520;-73
2022/10/15 12:25:54;;;;;;;7.50;4.55;;;22.90;96.70;;;;;;5081241;28;20044;-73
2022/10/15 12:28:26;;;;;;;5.78;3.83;;;22.80;96.70;;;;;;5071345;28;20040;-79
2022/10/15 12:31:03;;;;;;;7.70;4.20;;;22.80;96.70;;;;;;5077341;28;20452;-78
2022/10/15 12:33:35;;;;;;;11.18;3.83;;;22.80;96.70;;;;;;5070709;28;20059;-79
2022/10/15 12:36:08;;;;;;;11.23;4.18;;;22.80;96.70;;;;;;5083022;28;20146;-75
2022/10/15 12:38:40;;;;;;;8.15;3.60;;;22.90;96.70;;;;;;5081028;28;20039;-77
2022/10/15 12:41:11;;;;;;;8.52;3.83;;;22.90;96.70;;;;;;5077776;28;20063;-79
2022/10/15 12:43:43;;;;;;;4.75;3.65;;;22.90;96.70;;;;;;5082447;28;20072;-77
2022/10/15 12:46:13;;;;;;;5.70;3.38;;;23.00;96.70;;;;;;5082017;28;20040;-74
2022/10/15 12:48:43;;;;;;;7.47;3.50;;;23.00;96.70;;;;;;5082527;28;20051;-73
2022/10/15 12:51:39;;;;;;;7.35;3.95;;;23.00;96.70;;;;;;5083434;28;20044;-74
2022/10/15 12:54:36;;;;;;;7.07;3.50;;;23.00;96.70;;;;;;5080530;28;20152;-74
2022/10/15 12:57:38;;;;;;;5.60;3.80;;;23.00;96.70;;;;;;5089019;28;20049;-73
2022/10/15 13:00:41;;;;;;;6.80;4.07;;;23.00;96.70;;;;;;5080740;28;20094;-73
2022/10/15 13:03:32;;;;;;;7.05;3.83;;;23.00;96.70;;;;;;5077411;28;20052;-74
2022/10/15 13:06:21;;;;;;;6.13;3.55;;;22.90;96.70;;;;;;5083742;28;20109;-73
2022/10/15 13:08:53;;;;;;;6.63;3.08;;;22.90;96.70;;;;;;5076773;28;20055;-74
2022/10/15 13:11:25;;;;;;;7.05;3.42;;;23.00;96.70;;;;;;5083455;28;20044;-74
2022/10/15 13:13:59;;;;;;;5.40;3.15;;;23.00;96.70;;;;;;5082081;28;20084;-73
2022/10/15 13:16:28;;;;;;;5.72;3.03;;;22.90;96.70;;;;;;5085638;28;20048;-74
2022/10/15 13:18:59;;;;;;;5.82;3.13;;;23.00;96.70;;;;;;5101803;28;20513;-74